Time;durP1;ratioP1;P1;durP2;ratioP2;P2;SDS_P1;SDS_P2;PMS_P1;PMS_P2;Temp;Humidity;BMP_temperature;BMP_pressure;BME280_temperature;BME280_humidity;BME280_pressure;Samples;Min_cycle;Max_cycle;Signal;HPM_P1;HPM_P2
2022/03/09 00:00:06;;;;;;;5.88;3.50;;;19.90;58.90;;;;;;7870854;28;20185;-46
2022/03/09 00:03:51;;;;;;;10.00;4.05;;;19.90;58.80;;;;;;7870433;28;20224;-46
2022/03/09 00:07:37;;;;;;;5.35;3.90;;;19.90;59.00;;;;;;7870762;28;20682;-46
2022/03/09 00:11:23;;;;;;;6.03;3.72;;;19.90;58.80;;;;;;7870191;28;20209;-46
2022/03/09 00:15:08;;;;;;;4.80;3.42;;;19.90;58.80;;;;;;7870454;28;20520;-46
2022/03/09 00:18:54;;;;;;;5.65;3.53;;;19.90;58.80;;;;;;7870391;28;20192;-45
2022/03/09 00:22:40;;;;;;;5.97;3.50;;;19.90;58.80;;;;;;7869936;28;20835;-46
2022/03/09 00:26:25;;;;;;;9.07;3.60;;;19.80;58.70;;;;;;7870099;28;20238;-46
2022/03/09 00:30:11;;;;;;;5.50;3.20;;;19.80;58.50;;;;;;7869738;28;20689;-48
2022/03/09 00:33:56;;;;;;;4.95;3.53;;;19.80;58.50;;;;;;7869143;28;20197;-47
2022/03/09 00:37:42;;;;;;;4.75;3.15;;;19.80;58.50;;;;;;7869948;28;20648;-46
2022/03/09 00:41:27;;;;;;;7.00;4.20;;;19.80;58.50;;;;;;7869516;28;20211;-47
2022/03/09 00:45:13;;;;;;;5.30;3.65;;;19.80;58.40;;;;;;7869786;28;20228;-50
2022/03/09 00:48:58;;;;;;;5.90;4.03;;;19.80;58.40;;;;;;7869703;28;20188;-47
2022/03/09 00:52:47;;;;;;;5.15;3.50;;;19.80;58.50;;;;;;7869272;28;20221;-47
2022/03/09 00:56:33;;;;;;;5.53;3.78;;;19.80;58.50;;;;;;7869783;28;20169;-49
2022/03/09 01:00:18;;;;;;;6.05;4.00;;;19.80;58.40;;;;;;7872042;28;20187;-46
2022/03/09 01:04:04;;;;;;;8.98;3.88;;;19.70;58.40;;;;;;7869162;28;20594;-47
2022/03/09 01:07:49;;;;;;;7.93;4.22;;;19.70;58.40;;;;;;7869269;28;20643;-46
2022/03/09 01:11:35;;;;;;;6.70;4.13;;;19.70;58.40;;;;;;7868413;28;20201;-45
2022/03/09 01:15:20;;;;;;;6.07;4.50;;;19.70;58.40;;;;;;7869217;28;20175;-45
2022/03/09 01:19:06;;;;;;;9.65;4.53;;;19.70;58.50;;;;;;7868996;28;20250;-44
2022/03/09 01:22:52;;;;;;;7.97;4.50;;;19.70;58.40;;;;;;7868949;28;20201;-45
2022/03/09 01:26:38;;;;;;;7.18;4.95;;;19.70;58.40;;;;;;7869253;28;20189;-47
2022/03/09 01:30:24;;;;;;;9.13;4.93;;;19.70;58.70;;;;;;7868775;28;20243;-47
2022/03/09 01:34:09;;;;;;;6.90;5.00;;;19.70;58.40;;;;;;7869206;28;20533;-47
2022/03/09 01:37:55;;;;;;;7.47;4.80;;;19.70;58.40;;;;;;7869335;28;20166;-47
2022/03/09 01:41:41;;;;;;;7.63;5.45;;;19.60;58.30;;;;;;7868815;28;20239;-46
2022/03/09 01:45:26;;;;;;;7.15;4.60;;;19.60;58.30;;;;;;7872907;28;20643;-47
2022/03/09 01:49:12;;;;;;;7.38;4.68;;;19.60;58.30;;;;;;7874723;28;20177;-45
2022/03/09 01:52:57;;;;;;;8.07;4.60;;;19.70;58.30;;;;;;7874645;28;20614;-45
2022/03/09 01:56:44;;;;;;;7.82;4.75;;;19.70;58.30;;;;;;7874652;28;20583;-46
2022/03/09 02:00:29;;;;;;;8.82;5.35;;;19.60;58.30;;;;;;7874427;28;20275;-45
2022/03/09 02:04:17;;;;;;;8.45;5.07;;;19.60;58.30;;;;;;7874238;28;20220;-46
2022/03/09 02:12:09;;;;;;;7.78;5.45;;;19.60;58.10;;;;;;7873889;28;20204;-47
2022/03/09 02:15:54;;;;;;;7.28;5.07;;;19.60;58.20;;;;;;7873979;28;20190;-46
2022/03/09 02:19:41;;;;;;;6.80;4.95;;;19.60;58.20;;;;;;7873873;28;20216;-47
2022/03/09 02:23:26;;;;;;;6.80;5.03;;;19.60;58.10;;;;;;7873658;28;20280;-45
2022/03/09 02:27:12;;;;;;;8.48;5.88;;;19.60;58.10;;;;;;7873761;28;20651;-47
2022/03/09 02:30:58;;;;;;;8.98;5.78;;;19.60;58.10;;;;;;7873251;28;20216;-47
2022/03/09 02:34:44;;;;;;;8.40;5.78;;;19.60;58.10;;;;;;7873533;28;20177;-49
2022/03/09 02:38:30;;;;;;;7.40;5.57;;;19.60;58.10;;;;;;7873432;28;20185;-46
2022/03/09 02:42:16;;;;;;;9.13;6.03;;;19.60;58.10;;;;;;7873184;28;20204;-46
2022/03/09 02:46:01;;;;;;;10.80;5.85;;;19.50;58.00;;;;;;7873691;28;20532;-45
2022/03/09 02:49:46;;;;;;;8.60;5.95;;;19.50;57.90;;;;;;7872797;28;20577;-47
2022/03/09 02:53:32;;;;;;;9.25;6.32;;;19.50;58.00;;;;;;7873016;28;20588;-47
2022/03/09 02:57:18;;;;;;;10.55;6.43;;;19.50;58.00;;;;;;7872077;28;20189;-47
2022/03/09 03:01:03;;;;;;;8.93;6.32;;;19.50;57.90;;;;;;7874609;28;20227;-45
2022/03/09 03:04:49;;;;;;;12.13;6.78;;;19.60;58.00;;;;;;7873871;28;20196;-47
2022/03/09 03:08:35;;;;;;;9.82;6.30;;;19.50;58.00;;;;;;7872460;28;20188;-46
2022/03/09 03:12:20;;;;;;;9.30;5.93;;;19.50;58.00;;;;;;7871890;28;20589;-46
2022/03/09 03:16:07;;;;;;;9.23;6.25;;;19.50;58.00;;;;;;7872311;28;20264;-45
2022/03/09 03:19:53;;;;;;;11.02;6.15;;;19.50;58.00;;;;;;7871855;28;20173;-48
2022/03/09 03:23:38;;;;;;;9.65;5.97;;;19.50;58.00;;;;;;7871958;28;20198;-47
2022/03/09 03:27:24;;;;;;;8.95;5.55;;;19.50;57.90;;;;;;7872017;28;20188;-47
2022/03/09 03:31:09;;;;;;;7.50;5.65;;;19.50;57.80;;;;;;7871433;28;20689;-47
2022/03/09 03:34:55;;;;;;;9.02;6.03;;;19.50;57.90;;;;;;7871753;28;20173;-47
2022/03/09 03:38:40;;;;;;;6.07;5.15;;;19.40;57.90;;;;;;7871523;28;20565;-46
2022/03/09 03:42:26;;;;;;;9.82;5.57;;;19.50;57.80;;;;;;7871063;28;20285;-46
2022/03/09 03:46:11;;;;;;;8.13;5.30;;;19.50;57.80;;;;;;7871369;28;20719;-47
2022/03/09 03:49:57;;;;;;;9.95;5.22;;;19.50;57.80;;;;;;7871230;28;20201;-45
2022/03/09 03:53:42;;;;;;;10.52;5.53;;;19.40;57.70;;;;;;7871124;28;20247;-45
2022/03/09 03:57:28;;;;;;;8.70;5.55;;;19.40;57.80;;;;;;7871291;28;20181;-48
2022/03/09 04:01:13;;;;;;;7.95;5.35;;;19.40;58.10;;;;;;7870696;28;20204;-46
2022/03/09 04:04:59;;;;;;;7.20;4.88;;;19.50;57.80;;;;;;7870904;28;20260;-46
2022/03/09 04:08:44;;;;;;;7.40;5.00;;;19.40;57.80;;;;;;7870439;28;20178;-45
2022/03/09 04:12:30;;;;;;;9.10;5.18;;;19.40;57.80;;;;;;7870197;28;20334;-46
2022/03/09 04:16:16;;;;;;;7.82;5.45;;;19.40;57.80;;;;;;7870525;28;20260;-45
2022/03/09 04:20:01;;;;;;;7.15;4.40;;;19.40;57.80;;;;;;7870019;28;20741;-48
2022/03/09 04:23:47;;;;;;;7.68;4.78;;;19.40;57.80;;;;;;7870234;28;20203;-46
2022/03/09 04:27:32;;;;;;;6.95;4.60;;;19.40;57.70;;;;;;7870165;28;20217;-46
2022/03/09 04:31:18;;;;;;;6.93;4.40;;;19.40;57.80;;;;;;7869694;28;20209;-47
2022/03/09 04:35:05;;;;;;;6.50;5.00;;;19.40;57.70;;;;;;7869877;28;20173;-48
2022/03/09 04:38:50;;;;;;;6.75;4.50;;;19.40;57.70;;;;;;7869831;28;20166;-46
2022/03/09 04:42:36;;;;;;;11.38;4.70;;;19.40;57.80;;;;;;7849277;28;20231;-47
2022/03/09 04:46:21;;;;;;;9.68;4.63;;;19.40;58.00;;;;;;7837976;28;20209;-48
2022/03/09 04:50:07;;;;;;;12.65;4.80;;;19.40;57.90;;;;;;7837613;28;20602;-48
2022/03/09 04:53:52;;;;;;;7.80;4.45;;;19.50;58.10;;;;;;7838329;28;20194;-47
2022/03/09 04:57:38;;;;;;;17.13;4.72;;;19.50;57.80;;;;;;7838149;28;20185;-48
2022/03/09 05:01:24;;;;;;;9.05;5.22;;;19.50;57.70;;;;;;7838338;28;20224;-45
2022/03/09 05:05:10;;;;;;;14.60;5.30;;;19.50;57.70;;;;;;7838422;28;20205;-48
2022/03/09 05:08:55;;;;;;;11.77;5.15;;;19.50;57.60;;;;;;7838058;28;20194;-46
2022/03/09 05:12:41;;;;;;;9.15;5.00;;;19.50;57.50;;;;;;7839616;28;20279;-46
2022/03/09 05:16:26;;;;;;;8.25;5.00;;;19.50;57.50;;;;;;7844319;28;20193;-46
2022/03/09 05:20:15;;;;;;;7.18;5.00;;;19.60;57.50;;;;;;7844055;28;20193;-45
2022/03/09 05:24:01;;;;;;;11.07;4.95;;;19.60;57.40;;;;;;7863408;28;20218;-46
2022/03/09 05:27:46;;;;;;;6.40;4.97;;;19.60;57.40;;;;;;7869682;28;20228;-46
2022/03/09 05:31:32;;;;;;;6.68;5.07;;;19.60;57.40;;;;;;7850156;28;20209;-45
2022/03/09 05:35:17;;;;;;;7.32;5.22;;;19.60;57.40;;;;;;7850979;28;20255;-45
2022/03/09 05:39:03;;;;;;;8.25;4.90;;;19.70;57.30;;;;;;7863374;28;20217;-47
2022/03/09 05:42:48;;;;;;;11.07;5.70;;;19.60;57.30;;;;;;7847811;28;20677;-47
2022/03/09 05:46:34;;;;;;;7.78;5.30;;;19.60;57.30;;;;;;7849036;28;20185;-46
2022/03/09 05:50:21;;;;;;;16.85;5.18;;;19.60;57.40;;;;;;7845691;28;20210;-45
2022/03/09 05:54:06;;;;;;;13.90;5.93;;;19.70;57.80;;;;;;7847384;28;20204;-45
2022/03/09 05:57:52;;;;;;;12.95;4.80;;;19.70;57.80;;;;;;7848163;28;20182;-45
2022/03/09 06:01:37;;;;;;;9.75;4.90;;;19.70;57.80;;;;;;7847297;28;20259;-46
2022/03/09 06:05:23;;;;;;;10.48;4.82;;;19.70;57.90;;;;;;7847787;28;20205;-45
2022/03/09 06:09:08;;;;;;;8.38;4.85;;;19.80;58.00;;;;;;7847570;28;20178;-48
2022/03/09 06:12:54;;;;;;;8.02;4.55;;;19.80;58.00;;;;;;7847364;28;20217;-48
2022/03/09 06:16:39;;;;;;;11.23;5.00;;;19.80;58.10;;;;;;7871494;28;20200;-45
2022/03/09 06:20:28;;;;;;;8.98;4.75;;;19.80;58.20;;;;;;7866101;28;20658;-46
2022/03/09 06:24:16;;;;;;;14.13;4.70;;;19.80;58.20;;;;;;7847258;28;20194;-46
2022/03/09 06:28:02;;;;;;;11.32;4.90;;;19.80;58.40;;;;;;7847159;28;20178;-46
2022/03/09 06:31:48;;;;;;;19.20;4.38;;;19.90;58.70;;;;;;7843398;28;20305;-47
2022/03/09 06:35:33;;;;;;;8.57;4.40;;;19.90;58.40;;;;;;7842445;28;20170;-47
2022/03/09 06:39:20;;;;;;;9.10;4.18;;;19.90;58.20;;;;;;7841573;28;20515;-45
2022/03/09 06:43:06;;;;;;;13.88;4.40;;;19.90;58.20;;;;;;7842056;28;20241;-45
2022/03/09 06:46:51;;;;;;;10.98;4.68;;;19.90;58.10;;;;;;7841850;28;20197;-46
2022/03/09 06:50:37;;;;;;;9.60;4.07;;;19.90;58.20;;;;;;7841020;28;20210;-48
2022/03/09 06:54:23;;;;;;;8.23;4.20;;;19.90;58.20;;;;;;7839578;28;20234;-46
2022/03/09 06:58:08;;;;;;;17.33;4.45;;;19.90;58.20;;;;;;7841487;28;20182;-48
2022/03/09 07:01:53;;;;;;;9.68;4.82;;;19.90;58.40;;;;;;7840942;28;20244;-44
2022/03/09 07:05:39;;;;;;;7.63;4.20;;;19.90;58.40;;;;;;7841354;28;20265;-45
2022/03/09 07:09:24;;;;;;;11.57;5.28;;;19.90;58.50;;;;;;7841482;28;20192;-45
2022/03/09 07:13:10;;;;;;;16.85;5.47;;;20.00;58.50;;;;;;7841167;28;20209;-47
2022/03/09 07:16:56;;;;;;;11.75;6.05;;;19.90;58.50;;;;;;7841002;28;20209;-46
2022/03/09 07:20:41;;;;;;;9.38;6.00;;;20.00;58.60;;;;;;7840525;28;20181;-46
2022/03/09 07:24:27;;;;;;;11.13;6.68;;;20.00;58.60;;;;;;7840778;28;20198;-46
2022/03/09 07:28:12;;;;;;;12.30;7.13;;;20.00;58.70;;;;;;7840751;28;20261;-45
2022/03/09 07:31:58;;;;;;;16.10;7.15;;;20.00;58.60;;;;;;7840369;28;20702;-46
2022/03/09 07:35:45;;;;;;;13.50;7.60;;;20.00;58.70;;;;;;7841710;28;20260;-48
2022/03/09 07:39:31;;;;;;;10.75;7.00;;;20.00;58.70;;;;;;7871055;28;20689;-46
2022/03/09 07:43:16;;;;;;;10.00;6.45;;;20.10;58.70;;;;;;7870663;28;20303;-46
2022/03/09 07:47:02;;;;;;;12.95;6.68;;;20.10;58.90;;;;;;7871349;28;20260;-47
2022/03/09 07:50:48;;;;;;;10.32;7.20;;;20.10;58.90;;;;;;7868640;28;20209;-45
2022/03/09 07:54:33;;;;;;;12.07;6.82;;;20.10;58.90;;;;;;7870789;28;20255;-49
2022/03/09 07:58:19;;;;;;;12.38;6.97;;;20.10;59.00;;;;;;7870581;28;20174;-46
2022/03/09 08:02:05;;;;;;;12.85;6.38;;;20.10;58.90;;;;;;7839386;28;20405;-49
2022/03/09 08:05:50;;;;;;;18.42;6.60;;;20.10;59.00;;;;;;7839583;28;20189;-48
2022/03/09 08:09:36;;;;;;;14.43;6.85;;;20.20;59.20;;;;;;7839425;28;20189;-45
2022/03/09 08:13:21;;;;;;;14.82;6.22;;;20.20;59.20;;;;;;7839458;28;20878;-46
2022/03/09 08:17:07;;;;;;;9.10;6.13;;;20.10;59.10;;;;;;7839401;28;20186;-46
2022/03/09 08:20:52;;;;;;;11.23;6.75;;;20.20;59.30;;;;;;7838885;28;20181;-46
2022/03/09 08:24:38;;;;;;;9.93;6.07;;;20.20;59.30;;;;;;7839257;28;20694;-46
2022/03/09 08:28:23;;;;;;;9.82;5.85;;;20.20;59.50;;;;;;7839071;28;20182;-45
2022/03/09 08:32:09;;;;;;;12.95;5.70;;;20.20;59.50;;;;;;7841979;28;20217;-45
2022/03/09 08:35:54;;;;;;;10.40;6.32;;;20.20;59.50;;;;;;7850093;28;20679;-45
2022/03/09 08:39:43;;;;;;;8.52;5.65;;;20.20;59.50;;;;;;7842470;28;20186;-45
2022/03/09 08:43:28;;;;;;;8.38;5.65;;;20.20;59.40;;;;;;7837691;28;20205;-46
2022/03/09 08:47:14;;;;;;;9.90;5.93;;;20.20;59.50;;;;;;7837905;28;20261;-46
2022/03/09 08:50:59;;;;;;;9.77;5.45;;;20.20;59.40;;;;;;7837956;28;20201;-46
2022/03/09 08:54:45;;;;;;;10.25;5.20;;;20.20;59.50;;;;;;7837666;28;20632;-46
2022/03/09 08:58:30;;;;;;;8.68;5.07;;;20.20;59.60;;;;;;7844633;28;20181;-46
2022/03/09 09:02:16;;;;;;;12.75;5.95;;;20.20;59.60;;;;;;7837945;28;20220;-45
2022/03/09 09:06:02;;;;;;;12.38;6.05;;;20.20;59.60;;;;;;7838362;28;20184;-47
2022/03/09 09:09:47;;;;;;;8.02;5.38;;;20.20;59.60;;;;;;7842667;28;20197;-44
2022/03/09 09:13:33;;;;;;;9.75;5.20;;;20.20;59.60;;;;;;7869893;28;20198;-45
2022/03/09 09:17:18;;;;;;;14.70;5.28;;;20.20;59.70;;;;;;7857292;28;20186;-45
2022/03/09 09:21:04;;;;;;;12.98;5.25;;;20.30;60.10;;;;;;7837328;28;20598;-45
2022/03/09 09:24:50;;;;;;;7.53;4.72;;;20.30;60.10;;;;;;7837930;28;20577;-47
2022/03/09 09:28:35;;;;;;;10.50;5.40;;;20.30;60.60;;;;;;7837661;28;20189;-45
2022/03/09 09:32:21;;;;;;;10.98;4.95;;;20.30;60.40;;;;;;7837361;28;20214;-46
2022/03/09 09:36:06;;;;;;;11.40;5.15;;;20.30;60.50;;;;;;7837477;28;20182;-47
2022/03/09 09:39:53;;;;;;;8.77;4.80;;;20.30;60.40;;;;;;7837524;28;20709;-45
2022/03/09 09:43:40;;;;;;;9.82;4.72;;;20.30;60.30;;;;;;7837700;28;20205;-46
2022/03/09 09:47:29;;;;;;;9.23;4.60;;;20.30;60.20;;;;;;7837475;28;20253;-46
2022/03/09 09:51:15;;;;;;;12.13;4.55;;;20.30;60.10;;;;;;7835548;28;20217;-48
2022/03/09 09:55:03;;;;;;;13.10;5.18;;;20.30;60.00;;;;;;7836659;28;20181;-46
2022/03/09 09:58:49;;;;;;;8.43;5.10;;;20.30;60.10;;;;;;7863349;28;20226;-46
2022/03/09 10:02:42;;;;;;;6.25;4.65;;;20.30;60.10;;;;;;7850131;28;20340;-46
2022/03/09 10:06:30;;;;;;;14.55;4.53;;;20.20;60.20;;;;;;7839666;28;20190;-46
2022/03/09 10:10:18;;;;;;;6.68;4.68;;;20.30;60.30;;;;;;7841601;28;20198;-46
2022/03/09 10:14:04;;;;;;;7.40;4.50;;;20.30;60.30;;;;;;7842649;28;20202;-46
2022/03/09 10:17:49;;;;;;;9.60;4.00;;;20.30;60.20;;;;;;7842920;28;20273;-46
2022/03/09 10:21:37;;;;;;;7.20;4.07;;;20.30;60.10;;;;;;7842643;28;20735;-46
2022/03/09 10:25:23;;;;;;;7.28;3.78;;;20.30;60.20;;;;;;7842652;28;20190;-45
2022/03/09 10:29:11;;;;;;;9.73;4.30;;;20.30;60.20;;;;;;7842596;28;20235;-46
2022/03/09 10:32:59;;;;;;;7.57;4.32;;;20.30;60.20;;;;;;7851189;28;20217;-46
2022/03/09 10:37:05;;;;;;;6.95;4.05;;;20.30;60.20;;;;;;7873594;28;20170;-45
2022/03/09 10:40:54;;;;;;;5.75;3.53;;;20.30;60.20;;;;;;7873327;28;20176;-46
2022/03/09 10:44:49;;;;;;;7.55;3.80;;;20.30;60.20;;;;;;7873339;28;20178;-45
2022/03/09 10:48:54;;;;;;;8.57;3.85;;;20.30;60.40;;;;;;7872992;28;20173;-46
2022/03/09 10:53:00;;;;;;;7.72;4.03;;;20.30;60.10;;;;;;7846316;28;20228;-45
2022/03/09 10:56:46;;;;;;;11.13;4.15;;;20.30;60.40;;;;;;7841845;28;20206;-46
2022/03/09 11:00:45;;;;;;;8.93;3.63;;;20.30;60.40;;;;;;7843815;28;20185;-46
2022/03/09 11:04:31;;;;;;;7.32;3.92;;;20.30;60.40;;;;;;7841174;28;20800;-47
2022/03/09 11:08:21;;;;;;;8.77;3.95;;;20.30;60.30;;;;;;7840905;28;20553;-47
2022/03/09 11:12:07;;;;;;;7.88;3.72;;;20.30;60.60;;;;;;7841069;28;20208;-47
2022/03/09 11:15:54;;;;;;;14.45;3.72;;;20.30;60.30;;;;;;7847235;28;20179;-48
2022/03/09 11:19:43;;;;;;;7.00;3.80;;;20.30;59.90;;;;;;7840350;28;20706;-46
2022/03/09 11:23:31;;;;;;;7.97;3.13;;;20.30;59.70;;;;;;7840981;28;20200;-47
2022/03/09 11:27:16;;;;;;;4.50;3.13;;;20.30;59.60;;;;;;7840768;28;20182;-46
2022/03/09 11:31:11;;;;;;;7.53;3.60;;;20.30;59.70;;;;;;7840341;28;20194;-48
2022/03/09 11:34:56;;;;;;;7.35;3.22;;;20.30;59.70;;;;;;7840767;28;20643;-46
2022/03/09 11:38:42;;;;;;;9.27;3.28;;;20.30;59.70;;;;;;7840460;28;20601;-45
2022/03/09 11:42:31;;;;;;;8.45;3.25;;;20.20;59.50;;;;;;7870000;28;20224;-46
2022/03/09 11:46:17;;;;;;;7.13;3.55;;;20.20;59.30;;;;;;7871488;28;20181;-46
2022/03/09 11:50:06;;;;;;;8.43;3.38;;;20.20;59.20;;;;;;7870895;28;20209;-47
2022/03/09 11:53:57;;;;;;;6.32;2.95;;;20.20;59.40;;;;;;7871152;28;20193;-46
2022/03/09 11:57:48;;;;;;;6.22;2.80;;;20.20;59.30;;;;;;7871072;28;20825;-46
2022/03/09 12:01:59;;;;;;;10.35;3.00;;;20.20;59.10;;;;;;7870564;28;20209;-46
2022/03/09 12:05:45;;;;;;;5.60;2.97;;;20.20;59.60;;;;;;7870629;28;20697;-46
2022/03/09 12:09:59;;;;;;;6.22;2.63;;;20.20;59.60;;;;;;7867653;28;20216;-46
2022/03/09 12:13:46;;;;;;;6.38;3.22;;;20.20;59.70;;;;;;7870525;28;20236;-46
2022/03/09 12:17:37;;;;;;;9.27;3.05;;;20.20;59.50;;;;;;7870244;28;20181;-46
2022/03/09 12:21:25;;;;;;;6.93;2.67;;;20.20;59.60;;;;;;7870110;28;20204;-48
2022/03/09 12:25:44;;;;;;;7.55;3.13;;;20.30;59.70;;;;;;7863785;28;20647;-46
2022/03/09 12:29:30;;;;;;;5.70;2.85;;;20.20;59.60;;;;;;7839035;28;20277;-46
2022/03/09 12:33:36;;;;;;;8.45;2.78;;;20.20;59.80;;;;;;7839471;28;20209;-46
2022/03/09 12:37:25;;;;;;;3.88;2.42;;;20.20;59.80;;;;;;7839394;28;20170;-45
2022/03/09 12:41:26;;;;;;;6.80;2.85;;;20.20;59.60;;;;;;7838654;28;20186;-45
2022/03/09 12:45:12;;;;;;;6.10;2.88;;;20.20;60.00;;;;;;7842367;28;20200;-46
2022/03/09 12:49:05;;;;;;;3.50;2.60;;;20.30;60.10;;;;;;7869746;28;20268;-48
2022/03/09 12:52:55;;;;;;;6.45;2.42;;;20.20;60.20;;;;;;7869318;28;20216;-46
2022/03/09 12:56:40;;;;;;;6.07;2.67;;;20.30;60.30;;;;;;7869527;28;20161;-47
2022/03/09 13:00:27;;;;;;;6.30;2.90;;;20.30;60.40;;;;;;7848935;28;20674;-48
2022/03/09 13:04:12;;;;;;;5.95;3.08;;;20.30;60.40;;;;;;7869248;28;20223;-47
2022/03/09 13:08:06;;;;;;;4.55;2.65;;;20.30;60.10;;;;;;7869159;28;20173;-47
2022/03/09 13:11:52;;;;;;;4.50;2.50;;;20.30;60.10;;;;;;7868684;28;20609;-47
2022/03/09 13:15:40;;;;;;;6.43;2.30;;;20.30;60.00;;;;;;7869293;28;20177;-46
2022/03/09 13:19:26;;;;;;;4.47;2.30;;;20.30;60.00;;;;;;7868795;28;20177;-46
2022/03/09 13:23:30;;;;;;;6.18;2.47;;;20.20;60.10;;;;;;7868999;28;20209;-46
2022/03/09 13:27:17;;;;;;;2.30;2.10;;;20.20;60.10;;;;;;7868981;28;20680;-46
2022/03/09 13:31:02;;;;;;;3.10;2.30;;;20.30;59.90;;;;;;7868306;28;20236;-46
2022/03/09 13:34:55;;;;;;;5.78;2.20;;;20.20;59.80;;;;;;7868946;28;20185;-46
2022/03/09 13:38:42;;;;;;;4.90;2.63;;;20.30;59.90;;;;;;7855063;28;20196;-47
2022/03/09 13:42:34;;;;;;;18.00;2.90;;;20.30;60.10;;;;;;7843195;28;20202;-48
2022/03/09 13:46:22;;;;;;;7.65;2.60;;;20.30;60.10;;;;;;7850462;28;20189;-49
2022/03/09 13:50:16;;;;;;;9.13;2.40;;;20.30;59.70;;;;;;7843294;28;20198;-50
2022/03/09 13:54:06;;;;;;;6.47;2.50;;;20.30;60.10;;;;;;7843275;28;20206;-46
2022/03/09 13:58:04;;;;;;;8.35;2.70;;;20.30;60.50;;;;;;7866280;28;20185;-46
2022/03/09 14:01:50;;;;;;;5.40;2.35;;;20.30;60.20;;;;;;7851605;28;20233;-46
2022/03/09 14:05:39;;;;;;;5.22;2.22;;;20.30;60.00;;;;;;7850517;28;20279;-45
2022/03/09 14:09:25;;;;;;;7.10;2.08;;;20.40;60.00;;;;;;7840408;28;20178;-46
2022/03/09 14:13:13;;;;;;;4.32;2.75;;;20.30;59.90;;;;;;7842521;28;20283;-46
2022/03/09 14:17:00;;;;;;;4.55;2.30;;;20.40;59.90;;;;;;7843026;28;20182;-46
2022/03/09 14:20:47;;;;;;;3.17;2.00;;;20.40;60.00;;;;;;7842558;28;20178;-45
2022/03/09 14:24:33;;;;;;;9.25;2.45;;;20.40;59.90;;;;;;7842399;28;20209;-45
2022/03/09 14:28:18;;;;;;;5.03;2.35;;;20.40;60.00;;;;;;7842689;28;20181;-46
2022/03/09 14:32:06;;;;;;;4.80;1.98;;;20.40;60.00;;;;;;7846911;28;20213;-46
2022/03/09 14:35:51;;;;;;;5.18;2.80;;;20.40;59.90;;;;;;7852362;28;20186;-50
2022/03/09 14:39:37;;;;;;;6.60;2.38;;;20.40;59.70;;;;;;7842213;28;20170;-47
2022/03/09 14:43:22;;;;;;;10.15;2.28;;;20.40;60.70;;;;;;7842215;28;20196;-46
2022/03/09 14:47:09;;;;;;;4.78;2.33;;;20.40;60.40;;;;;;7842009;28;20178;-48
2022/03/09 14:50:55;;;;;;;7.13;1.88;;;20.40;60.50;;;;;;7840815;28;20197;-46
2022/03/09 14:54:41;;;;;;;2.42;1.65;;;20.40;60.60;;;;;;7842225;28;20174;-46
2022/03/09 14:58:26;;;;;;;4.70;2.30;;;20.40;60.40;;;;;;7842025;28;20201;-46
2022/03/09 15:02:12;;;;;;;3.85;2.17;;;20.40;60.30;;;;;;7841336;28;20210;-45
2022/03/09 15:05:58;;;;;;;6.72;2.10;;;20.30;60.40;;;;;;7841609;28;20182;-46
2022/03/09 15:09:44;;;;;;;4.13;2.10;;;20.40;60.30;;;;;;7841535;28;20266;-45
2022/03/09 15:13:30;;;;;;;3.00;2.00;;;20.40;60.20;;;;;;7840912;28;20213;-45
2022/03/09 15:17:15;;;;;;;4.75;2.35;;;20.40;60.70;;;;;;7841340;28;20651;-48
2022/03/09 15:21:01;;;;;;;5.10;1.90;;;20.40;60.90;;;;;;7859075;28;20235;-47
2022/03/09 15:24:47;;;;;;;6.07;2.35;;;20.40;61.20;;;;;;7859152;28;20735;-46
2022/03/09 15:28:34;;;;;;;6.72;2.08;;;20.40;60.70;;;;;;7841090;28;20186;-46
2022/03/09 15:32:19;;;;;;;7.90;2.15;;;20.40;60.40;;;;;;7840375;28;20762;-47
2022/03/09 15:36:05;;;;;;;6.70;1.83;;;20.40;60.40;;;;;;7840479;28;20560;-46
2022/03/09 15:39:55;;;;;;;3.50;1.85;;;20.40;60.40;;;;;;7840233;28;20251;-47
2022/03/09 15:43:41;;;;;;;5.25;2.40;;;20.40;60.50;;;;;;7840475;28;20676;-46
2022/03/09 15:47:27;;;;;;;4.63;2.22;;;20.40;60.40;;;;;;7840310;28;20541;-46
2022/03/09 15:51:15;;;;;;;4.13;1.92;;;20.40;60.70;;;;;;7839502;28;20206;-45
2022/03/09 15:55:02;;;;;;;6.38;2.30;;;20.40;60.60;;;;;;7839919;28;20186;-46
2022/03/09 15:58:48;;;;;;;7.53;2.45;;;20.40;60.60;;;;;;7839988;28;20174;-46
2022/03/09 16:02:35;;;;;;;5.55;2.22;;;20.40;61.20;;;;;;7838897;28;20219;-49
2022/03/09 16:06:21;;;;;;;9.63;2.13;;;20.40;61.60;;;;;;7860414;28;20192;-46
2022/03/09 16:10:07;;;;;;;4.15;2.13;;;20.50;61.30;;;;;;7870693;28;20189;-45
2022/03/09 16:13:52;;;;;;;9.60;2.03;;;20.40;61.00;;;;;;7870861;28;20197;-46
2022/03/09 16:17:39;;;;;;;15.13;2.53;;;20.40;60.70;;;;;;7870344;28;20253;-48
2022/03/09 16:21:24;;;;;;;9.13;2.88;;;20.40;61.00;;;;;;7869777;28;20197;-47
2022/03/09 16:25:10;;;;;;;3.85;1.88;;;20.40;60.70;;;;;;7870327;28;20177;-49
2022/03/09 16:28:56;;;;;;;9.50;2.28;;;20.40;60.70;;;;;;7870170;28;20260;-48
2022/03/09 16:32:41;;;;;;;3.53;1.80;;;20.40;60.70;;;;;;7869627;28;20244;-48
2022/03/09 16:36:27;;;;;;;4.35;2.20;;;20.40;60.60;;;;;;7885283;28;20183;-46
2022/03/09 16:40:13;;;;;;;7.43;1.98;;;20.40;60.70;;;;;;7901068;28;20175;-48
2022/03/09 16:43:58;;;;;;;8.23;2.28;;;20.40;60.70;;;;;;7901005;28;20200;-47
2022/03/09 16:47:46;;;;;;;2.70;2.30;;;20.40;60.70;;;;;;7900949;28;20173;-48
2022/03/09 16:51:31;;;;;;;16.98;2.45;;;20.40;60.70;;;;;;7886174;28;20864;-47
2022/03/09 16:55:17;;;;;;;10.43;2.42;;;20.30;60.70;;;;;;7868436;28;20578;-47
2022/03/09 16:59:03;;;;;;;8.50;2.15;;;20.30;60.40;;;;;;7868567;28;20294;-47
2022/03/09 17:02:51;;;;;;;7.00;2.80;;;20.30;60.10;;;;;;7867946;28;20213;-47
2022/03/09 17:06:37;;;;;;;7.95;2.10;;;20.30;60.00;;;;;;7861439;28;20828;-47
2022/03/09 17:10:23;;;;;;;19.30;2.78;;;20.30;59.90;;;;;;7843423;28;20548;-48
2022/03/09 17:14:08;;;;;;;10.95;2.65;;;20.30;60.00;;;;;;7839874;28;20736;-48
2022/03/09 17:17:54;;;;;;;9.38;2.58;;;20.30;60.00;;;;;;7841854;28;20208;-47
2022/03/09 17:21:40;;;;;;;8.57;2.20;;;20.30;60.00;;;;;;7851809;28;20202;-49
2022/03/09 17:25:26;;;;;;;10.10;2.65;;;20.20;59.90;;;;;;7857342;28;20216;-47
2022/03/09 17:29:12;;;;;;;9.77;2.47;;;20.30;60.40;;;;;;7851335;28;20182;-45
2022/03/09 17:32:58;;;;;;;10.13;2.90;;;20.30;60.40;;;;;;7845337;28;20232;-46
2022/03/09 17:36:43;;;;;;;7.95;3.00;;;20.20;60.20;;;;;;7848214;28;20177;-46
2022/03/09 17:40:30;;;;;;;4.60;2.60;;;20.20;60.00;;;;;;7851539;28;20231;-46
2022/03/09 17:44:16;;;;;;;5.43;2.70;;;20.30;59.90;;;;;;7853319;28;20190;-46
2022/03/09 17:48:01;;;;;;;11.50;3.30;;;20.30;59.90;;;;;;7851872;28;20935;-47
2022/03/09 17:51:47;;;;;;;8.32;3.13;;;20.20;59.60;;;;;;7850995;28;20205;-47
2022/03/09 17:55:33;;;;;;;7.30;2.67;;;20.20;59.50;;;;;;7854157;28;20211;-46
2022/03/09 17:59:18;;;;;;;10.73;3.13;;;20.20;59.70;;;;;;7868504;28;20178;-46
2022/03/09 18:03:04;;;;;;;7.65;2.90;;;20.20;59.90;;;;;;7865670;28;20229;-47
2022/03/09 18:06:50;;;;;;;10.40;2.42;;;20.20;60.30;;;;;;7862422;28;20188;-47
2022/03/09 18:10:35;;;;;;;7.18;2.72;;;20.30;61.20;;;;;;7868055;28;20292;-46
2022/03/09 18:14:21;;;;;;;7.40;2.33;;;20.40;62.20;;;;;;7868427;28;20197;-47
2022/03/09 18:18:07;;;;;;;6.65;3.03;;;20.50;62.70;;;;;;7868428;28;20195;-46
2022/03/09 18:21:52;;;;;;;5.68;2.25;;;20.60;62.80;;;;;;7868180;28;20249;-46
2022/03/09 18:25:38;;;;;;;10.68;2.40;;;20.70;62.80;;;;;;7869135;28;20227;-46
2022/03/09 18:29:24;;;;;;;3.40;2.03;;;20.80;62.90;;;;;;7873542;28;20177;-47
2022/03/09 18:33:09;;;;;;;10.65;2.42;;;20.90;62.70;;;;;;7873544;28;20212;-47
2022/03/09 18:36:55;;;;;;;5.85;2.22;;;21.00;62.80;;;;;;7853902;28;20185;-50
2022/03/09 18:40:41;;;;;;;7.53;2.55;;;21.10;62.80;;;;;;7842221;28;20190;-48
2022/03/09 18:44:27;;;;;;;4.38;2.33;;;21.20;62.80;;;;;;7842173;28;20615;-48
2022/03/09 18:48:12;;;;;;;7.03;2.30;;;21.20;62.70;;;;;;7842610;28;20403;-47
2022/03/09 18:51:58;;;;;;;6.05;2.55;;;21.30;62.70;;;;;;7841814;28;20212;-47
2022/03/09 18:55:43;;;;;;;7.03;2.42;;;21.30;62.60;;;;;;7842005;28;20544;-47
2022/03/09 18:59:28;;;;;;;6.57;2.47;;;21.30;62.60;;;;;;7843101;28;20232;-47
2022/03/09 19:03:14;;;;;;;9.75;2.53;;;21.30;62.70;;;;;;7857877;28;20228;-48
2022/03/09 19:07:00;;;;;;;10.40;2.58;;;21.30;62.80;;;;;;7851665;28;20792;-49
2022/03/09 19:10:45;;;;;;;2.58;2.35;;;21.30;62.80;;;;;;7872315;28;20201;-48
2022/03/09 19:14:31;;;;;;;3.55;2.50;;;21.30;62.90;;;;;;7872500;28;20197;-48
2022/03/09 19:18:17;;;;;;;4.85;2.80;;;21.30;62.90;;;;;;7872373;28;20526;-47
2022/03/09 19:22:02;;;;;;;4.38;2.20;;;21.30;62.90;;;;;;7872080;28;20212;-47
2022/03/09 19:25:48;;;;;;;4.28;2.53;;;21.30;62.90;;;;;;7872393;28;20213;-46
2022/03/09 19:29:33;;;;;;;4.70;2.25;;;21.30;63.00;;;;;;7872098;28;20189;-47
2022/03/09 19:33:20;;;;;;;2.75;2.38;;;21.20;62.90;;;;;;7871912;28;20212;-46
2022/03/09 19:37:07;;;;;;;11.48;2.63;;;21.20;63.10;;;;;;7871187;28;20543;-49
2022/03/09 19:40:53;;;;;;;10.10;2.85;;;21.20;63.10;;;;;;7870328;28;20170;-46